createdAt,value
2022-08-05T00:01:28.090Z,2.78
2022-08-05T00:03:57.557Z,3.03
2022-08-05T00:06:32.228Z,2.60
2022-08-05T00:09:00.326Z,2.63
2022-08-05T00:11:34.473Z,2.80
2022-08-05T00:14:02.066Z,2.50
2022-08-05T00:16:36.052Z,2.78
2022-08-05T00:19:03.481Z,2.53
2022-08-05T00:21:30.684Z,2.60
2022-08-05T00:24:10.296Z,2.78
2022-08-05T00:26:37.678Z,2.67
2022-08-05T00:29:04.805Z,2.72
2022-08-05T00:31:53.064Z,2.45
2022-08-05T00:34:53.819Z,2.92
2022-08-05T00:37:11.630Z,2.72
2022-08-05T00:39:57.299Z,2.40
2022-08-05T00:42:32.544Z,2.28
2022-08-05T00:44:59.316Z,3.15
2022-08-05T00:47:25.798Z,2.50
2022-08-05T00:49:52.061Z,2.88
2022-08-05T00:52:19.175Z,2.90
2022-08-05T00:54:55.182Z,2.97
2022-08-05T00:57:22.939Z,3.38
2022-08-05T00:59:51.943Z,2.88
2022-08-05T01:02:18.287Z,3.53
2022-08-05T01:04:44.683Z,2.65
2022-08-05T01:07:18.012Z,3.10
2022-08-05T01:09:44.556Z,3.28
2022-08-05T01:12:18.789Z,2.95
2022-08-05T01:14:51.824Z,2.53
2022-08-05T01:17:27.328Z,2.70
2022-08-05T01:20:02.938Z,2.65
2022-08-05T01:22:37.067Z,2.80
2022-08-05T01:25:16.239Z,2.88
2022-08-05T01:28:01.375Z,3.00
2022-08-05T01:30:34.609Z,3.17
2022-08-05T01:33:03.100Z,2.92
2022-08-05T01:35:51.061Z,2.47
2022-08-05T01:38:27.566Z,2.75
2022-08-05T01:41:00.101Z,2.47
2022-08-05T01:43:28.675Z,2.60
2022-08-05T01:45:56.758Z,2.90
2022-08-05T01:48:24.582Z,2.40
2022-08-05T01:50:51.530Z,2.50
2022-08-05T01:53:37.388Z,2.72
2022-08-05T01:56:08.927Z,2.13
2022-08-05T01:58:44.612Z,3.10
2022-08-05T02:01:13.180Z,2.53
2022-08-05T02:03:43.713Z,2.42
2022-08-05T02:06:33.576Z,2.17
2022-08-05T02:08:59.039Z,2.63
2022-08-05T02:11:32.840Z,2.30
2022-08-05T02:14:07.851Z,2.20
2022-08-05T02:16:39.091Z,2.25
2022-08-05T02:19:09.400Z,2.40
2022-08-05T02:21:46.621Z,2.40
2022-08-05T02:24:17.934Z,2.65
2022-08-05T02:26:53.898Z,2.60
2022-08-05T02:29:24.246Z,2.60
2022-08-05T02:31:53.463Z,2.25
2022-08-05T02:34:23.303Z,2.40
2022-08-05T02:36:51.479Z,1.95
2022-08-05T02:39:21.561Z,2.53
2022-08-05T02:41:58.099Z,2.50
2022-08-05T02:44:28.421Z,2.20
2022-08-05T02:46:59.944Z,2.55
2022-08-05T02:49:36.863Z,2.67
2022-08-05T02:52:05.428Z,2.42
2022-08-05T02:54:34.955Z,2.22
2022-08-05T02:57:03.619Z,2.60
2022-08-05T02:59:47.796Z,2.90
2022-08-05T03:02:19.003Z,2.65
2022-08-05T03:04:53.201Z,2.80
2022-08-05T03:07:59.129Z,2.20
2022-08-05T03:10:07.244Z,2.78
2022-08-05T03:12:34.389Z,2.42
2022-08-05T03:15:01.049Z,3.00
2022-08-05T03:17:28.314Z,2.80
2022-08-05T03:19:55.159Z,3.05
2022-08-05T03:22:32.157Z,2.70
2022-08-05T03:25:18.818Z,2.88
2022-08-05T03:27:59.118Z,2.50
2022-08-05T03:30:28.672Z,2.70
2022-08-05T03:33:01.058Z,2.90
2022-08-05T03:35:29.690Z,2.40
2022-08-05T03:38:00.327Z,2.88
2022-08-05T03:40:32.290Z,3.03
2022-08-05T03:42:59.463Z,2.92
2022-08-05T03:45:57.316Z,2.90
2022-08-05T03:48:24.989Z,2.80
2022-08-05T03:52:37.633Z,2.50
2022-08-05T03:55:34.325Z,2.80
2022-08-05T03:56:46.287Z,3.60
2022-08-05T03:59:47.262Z,3.08
2022-08-05T04:02:37.589Z,3.03
2022-08-05T04:05:05.914Z,2.95
2022-08-05T04:07:57.511Z,2.95
2022-08-05T04:10:23.577Z,2.80
2022-08-05T04:12:59.011Z,3.05
2022-08-05T04:15:26.096Z,4.68
2022-08-05T04:17:56.685Z,3.40
2022-08-05T04:20:24.338Z,2.78
2022-08-05T04:22:50.689Z,3.40
2022-08-05T04:25:17.079Z,2.95
2022-08-05T04:27:56.816Z,2.78
2022-08-05T04:30:26.557Z,2.75
2022-08-05T11:56:50.368Z,0.80
2022-08-05T11:59:22.624Z,0.63
2022-08-05T12:01:54.099Z,0.90
2022-08-05T12:04:20.810Z,0.82
2022-08-05T12:06:49.583Z,0.80
2022-08-05T12:09:20.874Z,0.75
2022-08-05T12:12:06.113Z,0.70
2022-08-05T12:14:37.542Z,0.82
2022-08-05T12:18:00.724Z,0.70
2022-08-05T12:20:26.583Z,0.77
2022-08-05T12:22:46.234Z,0.60
2022-08-05T12:25:14.244Z,0.80
2022-08-05T12:27:52.887Z,0.95
2022-08-05T12:30:22.325Z,0.77
2022-08-05T12:32:58.583Z,0.80
2022-08-05T12:35:39.416Z,0.93
2022-08-05T12:38:07.146Z,0.90
2022-08-05T12:40:36.641Z,0.60
2022-08-05T12:43:06.500Z,0.90
2022-08-05T12:45:48.244Z,0.98
2022-08-05T12:48:32.131Z,0.80
2022-08-05T12:52:11.210Z,0.98
2022-08-05T12:54:04.290Z,1.00
2022-08-05T12:56:45.146Z,0.75
2022-08-05T12:59:20.829Z,1.00
2022-08-05T13:02:07.185Z,0.90
2022-08-05T13:04:35.839Z,0.80
2022-08-05T13:07:16.226Z,0.98
2022-08-05T13:09:52.782Z,0.93
2022-08-05T13:12:23.877Z,0.85
2022-08-05T13:15:05.491Z,1.00
2022-08-05T13:17:41.895Z,1.00
2022-08-05T13:20:09.889Z,0.98
2022-08-05T13:22:39.150Z,0.80
2022-08-05T13:25:18.757Z,0.80
2022-08-05T13:27:50.246Z,1.23
2022-08-05T13:30:33.105Z,1.00
2022-08-05T13:33:02.558Z,0.90
2022-08-05T13:35:43.225Z,1.00
2022-08-05T13:38:20.377Z,1.10
2022-08-05T13:43:23.862Z,1.10
2022-08-05T19:52:58.387Z,1.45
2022-08-05T19:56:14.766Z,2.50
2022-08-05T19:58:28.910Z,1.58
2022-08-05T20:00:56.394Z,1.38
2022-08-05T20:03:24.327Z,1.40
2022-08-05T20:05:56.424Z,1.70
2022-08-05T20:08:24.483Z,1.20
2022-08-05T20:10:51.601Z,1.30
2022-08-05T20:13:54.900Z,1.25
2022-08-05T20:16:10.269Z,1.60
2022-08-05T20:18:36.946Z,1.30
2022-08-05T20:21:04.706Z,1.52
2022-08-05T20:23:40.569Z,1.40
2022-08-05T20:26:21.735Z,1.50
2022-08-05T20:28:51.372Z,1.95
2022-08-05T20:31:22.979Z,1.42
2022-08-05T20:34:03.454Z,1.35
2022-08-05T20:36:30.646Z,1.50
2022-08-05T20:38:59.214Z,1.60
2022-08-05T20:41:44.190Z,1.10
2022-08-05T20:44:18.707Z,1.98
2022-08-05T20:46:55.934Z,1.50
2022-08-05T20:49:24.594Z,1.70
2022-08-05T20:51:53.329Z,1.60
2022-08-05T20:54:20.330Z,1.67
2022-08-05T20:56:47.230Z,1.60
2022-08-05T20:59:26.535Z,1.67
2022-08-05T21:02:02.679Z,1.70
2022-08-05T21:04:34.680Z,3.22
2022-08-05T21:07:06.561Z,3.15
2022-08-05T21:09:53.638Z,2.50
2022-08-05T21:12:21.510Z,2.03
2022-08-05T21:17:21.507Z,1.48
2022-08-05T21:19:57.537Z,1.50
2022-08-05T21:22:25.810Z,1.73
2022-08-05T21:25:07.585Z,1.50
2022-08-05T21:27:38.917Z,1.33
2022-08-05T21:30:06.073Z,1.48
2022-08-05T21:32:35.136Z,1.50
2022-08-05T21:35:18.206Z,1.40
2022-08-05T21:37:53.328Z,1.42
2022-08-05T21:40:20.277Z,1.55
2022-08-05T21:42:47.214Z,1.40
2022-08-05T21:45:24.547Z,1.27
2022-08-05T21:47:55.940Z,1.30
2022-08-05T21:50:24.989Z,1.50
2022-08-05T21:52:51.312Z,2.30
2022-08-05T21:55:42.662Z,1.80
2022-08-05T21:58:05.807Z,1.83
2022-08-05T22:00:32.218Z,2.17
2022-08-05T22:02:58.602Z,1.65
2022-08-05T22:05:27.341Z,1.90
2022-08-05T22:07:58.250Z,2.13
2022-08-05T22:12:54.255Z,1.65
2022-08-05T22:15:56.651Z,1.50
2022-08-05T22:18:08.708Z,1.95
2022-08-05T22:20:39.092Z,1.98
2022-08-05T22:23:24.830Z,2.63
2022-08-05T22:26:29.725Z,2.20
2022-08-05T22:28:56.248Z,2.25
2022-08-05T22:31:22.776Z,1.88
2022-08-05T22:33:57.169Z,1.52
2022-08-05T22:36:27.247Z,1.63
2022-08-05T22:38:55.369Z,1.63
2022-08-05T22:41:26.369Z,1.90
2022-08-05T22:44:08.990Z,1.85
2022-08-05T22:46:40.065Z,1.40
2022-08-05T22:49:07.230Z,1.77
2022-08-05T22:52:06.361Z,1.83
2022-08-05T22:54:25.435Z,1.70
2022-08-05T22:56:54.254Z,1.92
2022-08-05T22:59:45.541Z,1.88
2022-08-05T23:02:08.215Z,1.90
2022-08-05T23:04:35.063Z,1.70
2022-08-05T23:07:02.929Z,2.38
2022-08-05T23:09:57.555Z,1.88
2022-08-05T23:12:17.810Z,2.00
2022-08-05T23:14:44.392Z,2.60
2022-08-05T23:17:24.319Z,1.60
2022-08-05T23:19:59.985Z,1.48
2022-08-05T23:22:27.291Z,1.80
2022-08-05T23:24:54.133Z,1.95
2022-08-05T23:27:20.681Z,1.80
2022-08-05T23:29:49.310Z,1.58
2022-08-05T23:32:17.023Z,1.92
2022-08-05T23:34:49.370Z,1.92
2022-08-05T23:37:17.064Z,2.00
2022-08-05T23:39:53.643Z,2.10
2022-08-05T23:42:28.959Z,2.00
2022-08-05T23:44:56.175Z,2.20
2022-08-05T23:47:22.552Z,1.92
2022-08-05T23:49:51.958Z,3.45
2022-08-05T23:52:30.560Z,2.22
2022-08-05T23:54:59.762Z,2.08
2022-08-05T23:57:28.185Z,2.50
